Time;durP1;ratioP1;P1;durP2;ratioP2;P2;SDS_P1;SDS_P2;PMS_P1;PMS_P2;Temp;Humidity;BMP_temperature;BMP_pressure;BME280_temperature;BME280_humidity;BME280_pressure;Samples;Min_cycle;Max_cycle;Signal;HPM_P1;HPM_P2
2023/06/03 00:02:21;;;;;;;5.00;4.70;;;;;;;11.69;82.68;101343.84;6053213;23;20287;-78
2023/06/03 00:04:51;;;;;;;5.95;5.53;;;;;;;11.50;82.41;101308.81;6014468;23;20047;-78
2023/06/03 00:07:18;;;;;;;5.70;5.30;;;;;;;11.08;82.44;101244.16;6009208;23;20046;-78
2023/06/03 00:09:44;;;;;;;6.32;5.20;;;;;;;11.52;84.02;101333.25;6043537;23;20059;-78
2023/06/03 00:12:23;;;;;;;6.03;5.53;;;;;;;11.16;84.36;101292.81;6011165;23;20049;-80
2023/06/03 00:14:50;;;;;;;5.55;5.25;;;;;;;10.12;83.78;101111.03;6039033;23;20026;-81
2023/06/03 00:17:17;;;;;;;6.18;5.53;;;;;;;10.85;84.77;101237.34;6035504;23;20069;-80
2023/06/03 00:19:48;;;;;;;5.50;5.15;;;;;;;10.19;84.77;101150.03;6048664;23;20022;-78
2023/06/03 00:22:15;;;;;;;8.85;6.53;;;;;;;9.65;84.94;101072.00;6015767;23;20590;-77
2023/06/03 00:24:42;;;;;;;5.97;5.05;;;;;;;11.34;85.60;101351.53;6042571;23;20233;-79
2023/06/03 00:27:08;;;;;;;7.97;4.93;;;;;;;11.29;85.68;101350.06;6012535;23;20074;-79
2023/06/03 00:29:35;;;;;;;5.15;4.85;;;;;;;10.17;85.81;101182.50;6034084;23;20026;-80
2023/06/03 00:32:05;;;;;;;6.53;5.13;;;;;;;10.90;86.49;101335.97;6004192;23;20073;-76
2023/06/03 00:34:31;;;;;;;5.47;4.97;;;;;;;10.11;86.54;101219.50;6027800;23;20032;-78
2023/06/03 00:36:58;;;;;;;5.68;5.22;;;;;;;10.08;87.07;101203.88;6008138;23;20100;-78
2023/06/03 00:39:31;;;;;;;6.10;5.65;;;;;;;11.10;87.75;101369.25;6037366;23;20057;-77
2023/06/03 00:41:58;;;;;;;6.45;5.85;;;;;;;10.72;87.78;101307.88;6018158;23;20019;-79
2023/06/03 00:44:25;;;;;;;6.60;5.70;;;;;;;10.29;87.35;101241.47;6033111;23;20040;-77
2023/06/03 00:46:52;;;;;;;5.97;5.47;;;;;;;10.85;87.74;101324.81;6011476;23;20023;-78
2023/06/03 00:49:20;;;;;;;6.57;5.82;;;;;;;11.01;87.97;101369.66;6035454;23;20564;-79
2023/06/03 00:51:48;;;;;;;8.98;4.80;;;;;;;11.01;88.22;101372.28;6004472;23;20049;-79
2023/06/03 00:54:18;;;;;;;6.47;5.30;;;;;;;11.02;89.21;101371.34;6027512;23;20102;-78
2023/06/03 00:56:49;;;;;;;5.68;5.20;;;;;;;9.41;88.82;101107.94;6010588;23;20051;-79
2023/06/03 00:59:19;;;;;;;7.00;5.03;;;;;;;9.90;88.40;101189.75;6036500;23;20081;-78
2023/06/03 01:01:46;;;;;;;5.80;5.30;;;;;;;11.00;89.23;101375.81;6008889;23;20022;-77
2023/06/03 01:04:17;;;;;;;5.55;5.25;;;;;;;9.15;89.40;101081.00;6030811;23;20035;-79
2023/06/03 01:06:49;;;;;;;5.32;4.95;;;;;;;10.94;89.19;101373.47;6040878;23;20018;-78
2023/06/03 01:09:17;;;;;;;5.57;5.25;;;;;;;10.93;90.31;101379.66;6015684;23;20472;-80
2023/06/03 01:11:52;;;;;;;5.60;5.05;;;;;;;8.92;89.63;101063.59;6040265;23;20012;-79
2023/06/03 01:14:51;;;;;;;5.68;5.38;;;;;;;10.51;90.35;101334.13;6012904;23;20047;-78
2023/06/03 01:17:20;;;;;;;9.63;5.20;;;;;;;6.45;90.35;100663.56;6033133;23;20206;-79
2023/06/03 01:19:56;;;;;;;6.18;5.28;;;;;;;10.34;91.04;101307.72;6035251;23;20054;-79
2023/06/03 01:22:28;;;;;;;6.28;5.78;;;;;;;7.22;90.79;100805.13;6034150;23;20464;-77
2023/06/03 01:25:04;;;;;;;5.90;5.40;;;;;;;10.83;90.89;101381.81;6034553;23;20043;-83
2023/06/03 01:27:31;;;;;;;5.40;5.00;;;;;;;9.92;91.41;101238.63;6036427;23;20022;-80
2023/06/03 01:30:00;;;;;;;5.07;4.68;;;;;;;10.79;91.51;101438.00;6016409;23;20026;-80
2023/06/03 01:32:31;;;;;;;10.07;5.35;;;;;;;10.26;92.17;101302.75;6018910;23;20066;-83
2023/06/03 01:34:59;;;;;;;5.53;5.13;;;;;;;9.85;92.58;101241.53;6042082;23;20236;-78
2023/06/03 01:37:30;;;;;;;7.03;5.80;;;;;;;10.62;92.80;101374.81;6033241;23;20039;-81
2023/06/03 01:40:01;;;;;;;7.45;5.30;;;;;;;10.43;93.37;101353.75;6012484;23;20096;-80
2023/06/03 01:42:28;;;;;;;5.82;5.32;;;;;;;8.92;93.15;101116.81;6038523;23;20038;-80
2023/06/03 01:44:58;;;;;;;5.85;5.40;;;;;;;10.31;93.30;101337.59;6018322;23;20059;-79
2023/06/03 01:47:24;;;;;;;11.45;5.40;;;;;;;9.41;93.39;101195.22;6051804;23;20089;-80
2023/06/03 01:49:51;;;;;;;5.53;4.97;;;;;;;9.28;94.03;101175.66;6004980;23;20031;-81
2023/06/03 01:52:18;;;;;;;5.75;5.35;;;;;;;10.15;94.11;101332.06;6012035;23;20015;-81
2023/06/03 01:54:45;;;;;;;9.65;5.85;;;;;;;10.26;94.53;101381.47;6031088;23;20654;-79
2023/06/03 01:57:12;;;;;;;6.70;6.13;;;;;;;10.25;95.35;101356.16;6005576;23;20482;-81
2023/06/03 01:59:38;;;;;;;5.90;5.40;;;;;;;9.37;95.22;101214.59;6034485;23;20082;-77
2023/06/03 02:02:06;;;;;;;6.70;5.50;;;;;;;9.25;95.35;101215.91;6026073;23;20023;-78
2023/06/03 02:04:33;;;;;;;8.55;6.20;;;;;;;10.54;95.98;101427.63;6007385;23;20023;-79
2023/06/03 02:07:00;;;;;;;6.72;5.63;;;;;;;10.22;95.98;101373.78;6027776;23;20363;-80
2023/06/03 02:09:28;;;;;;;17.85;7.10;;;;;;;10.49;96.54;101419.94;6003590;23;20031;-77
2023/06/03 02:11:59;;;;;;;5.93;5.50;;;;;;;9.49;96.21;101256.03;6042007;23;20375;-78
2023/06/03 02:14:28;;;;;;;6.10;5.70;;;;;;;9.78;96.81;101309.94;6006812;23;20606;-79
2023/06/03 02:17:01;;;;;;;9.90;5.70;;;;;;;9.75;96.90;101311.81;6030564;23;20030;-77
2023/06/03 02:19:28;;;;;;;8.95;5.60;;;;;;;10.34;97.10;101413.56;6004293;23;20046;-78
2023/06/03 02:21:58;;;;;;;6.90;6.20;;;;;;;10.31;97.48;101424.16;6029382;23;20030;-78
2023/06/03 02:24:28;;;;;;;6.78;6.18;;;;;;;10.01;98.02;101383.38;6031037;23;20940;-78
2023/06/03 02:27:00;;;;;;;6.50;5.60;;;;;;;10.31;98.89;101432.03;6003613;23;21498;-79
2023/06/03 02:29:29;;;;;;;14.25;6.03;;;;;;;10.25;98.99;101419.13;6026418;23;20111;-78
2023/06/03 02:31:57;;;;;;;5.80;5.28;;;;;;;10.28;99.53;101426.00;6009104;23;20031;-78
2023/06/03 02:34:24;;;;;;;6.38;5.97;;;;;;;10.21;100.00;101420.16;6023593;23;20466;-79
2023/06/03 02:36:52;;;;;;;7.32;6.13;;;;;;;9.78;100.00;101343.13;6003413;23;20011;-79
2023/06/03 02:39:21;;;;;;;15.60;6.43;;;;;;;9.98;99.76;101381.69;6002888;23;21025;-78
2023/06/03 02:41:48;;;;;;;5.78;5.38;;;;;;;9.36;100.00;101283.59;6037946;23;20026;-80
2023/06/03 02:44:16;;;;;;;9.73;5.85;;;;;;;9.90;100.00;101387.25;6008602;23;20091;-80
2023/06/03 02:46:44;;;;;;;5.10;4.80;;;;;;;10.19;100.00;101448.22;6036455;23;20026;-80
2023/06/03 02:49:14;;;;;;;5.80;5.47;;;;;;;10.17;100.00;101445.66;6012161;23;20434;-79
2023/06/03 02:51:41;;;;;;;5.78;5.15;;;;;;;9.76;100.00;101400.88;6003638;23;20132;-81
2023/06/03 02:54:08;;;;;;;6.20;5.70;;;;;;;10.09;100.00;101441.63;6031291;23;20031;-79
2023/06/03 02:56:37;;;;;;;5.75;5.35;;;;;;;9.77;100.00;101397.34;5999452;23;20360;-79
2023/06/03 02:59:25;;;;;;;6.90;6.18;;;;;;;10.03;100.00;101450.56;6034291;23;20355;-80
2023/06/03 03:01:52;;;;;;;5.28;4.97;;;;;;;9.51;100.00;101372.09;6017091;23;20450;-80
2023/06/03 03:04:20;;;;;;;5.85;5.13;;;;;;;9.81;100.00;101436.56;6036635;23;20031;-82
2023/06/03 03:06:50;;;;;;;12.68;6.60;;;;;;;9.97;100.00;101469.16;6011651;23;20074;-83
2023/06/03 03:09:17;;;;;;;6.25;5.75;;;;;;;9.97;100.00;101459.50;6044380;23;20035;-81
2023/06/03 03:11:44;;;;;;;5.93;5.47;;;;;;;9.68;100.00;101415.16;6014183;23;20034;-83
2023/06/03 03:14:14;;;;;;;7.63;6.00;;;;;;;9.86;100.00;101437.22;6037905;23;20085;-82
2023/06/03 03:16:44;;;;;;;5.38;5.07;;;;;;;9.79;100.00;101434.00;6014154;23;20020;-80
2023/06/03 03:19:14;;;;;;;5.35;4.95;;;;;;;9.71;100.00;101430.78;6038762;23;20150;-83
2023/06/03 03:21:50;;;;;;;8.05;5.75;;;;;;;9.95;100.00;101461.34;5933079;23;20077;-80
2023/06/03 03:24:22;;;;;;;9.75;5.53;;;;;;;9.49;100.00;101391.41;6037963;23;20627;-80
2023/06/03 03:26:51;;;;;;;5.25;4.85;;;;;;;9.09;100.00;101330.84;6006926;23;20028;-76
2023/06/03 03:29:18;;;;;;;7.18;5.65;;;;;;;9.52;100.00;101421.00;6029905;23;20191;-77
2023/06/03 03:31:50;;;;;;;5.80;5.35;;;;;;;9.31;100.00;101383.31;6009156;23;20600;-76
2023/06/03 03:34:17;;;;;;;6.70;6.05;;;;;;;8.77;100.00;101298.81;6017212;23;20657;-76
2023/06/03 03:36:51;;;;;;;5.55;5.07;;;;;;;9.70;100.00;101465.75;6040512;23;20079;-77
2023/06/03 03:39:21;;;;;;;5.80;5.40;;;;;;;9.62;100.00;101483.53;6034038;23;20457;-78
2023/06/03 03:41:51;;;;;;;5.45;5.00;;;;;;;9.38;100.00;101455.53;6029226;23;20039;-76
2023/06/03 03:44:31;;;;;;;17.45;5.72;;;;;;;9.54;100.00;101471.59;6039563;23;20019;-77
2023/06/03 03:47:04;;;;;;;5.75;5.13;;;;;;;9.54;100.00;101466.34;6025660;23;20510;-76
2023/06/03 03:49:35;;;;;;;5.32;4.95;;;;;;;8.22;100.00;101247.50;6035299;23;20080;-77
2023/06/03 03:52:05;;;;;;;7.15;5.10;;;;;;;9.62;100.00;101476.53;6005947;23;20034;-76
2023/06/03 03:54:35;;;;;;;9.15;5.68;;;;;;;9.64;100.00;101485.22;6032722;23;20030;-76
2023/06/03 03:57:23;;;;;;;5.70;5.20;;;;;;;9.76;100.00;101494.38;6001061;23;20074;-76
2023/06/03 03:59:55;;;;;;;5.13;4.72;;;;;;;9.65;100.00;101467.72;6029150;23;20136;-77
2023/06/03 04:02:27;;;;;;;4.82;4.63;;;;;;;9.83;100.00;101490.63;6009692;23;20025;-76
2023/06/03 04:04:58;;;;;;;7.15;5.25;;;;;;;9.91;100.00;101496.44;6037696;23;20148;-77
2023/06/03 04:07:35;;;;;;;5.88;5.38;;;;;;;10.06;100.00;101497.63;6014886;23;20027;-77
2023/06/03 04:10:08;;;;;;;5.38;4.97;;;;;;;10.06;100.00;101402.38;6038835;23;20026;-76
2023/06/03 04:12:36;;;;;;;5.43;4.93;;;;;;;11.58;100.00;101524.88;6031140;23;20054;-77
2023/06/03 04:15:03;;;;;;;7.25;5.10;;;;;;;12.05;97.04;101485.13;6039472;23;20030;-76
2023/06/03 04:17:40;;;;;;;5.28;4.97;;;;;;;13.04;93.07;101520.81;6002316;23;20023;-77
2023/06/03 04:20:42;;;;;;;6.10;5.70;;;;;;;13.61;85.86;101457.31;6023792;23;20053;-77
2023/06/03 04:23:20;;;;;;;6.00;5.53;;;;;;;12.83;80.50;101203.13;6021101;23;20034;-77
2023/06/03 04:25:50;;;;;;;8.38;5.70;;;;;;;13.21;76.35;101194.91;6011433;23;20038;-77
2023/06/03 04:28:23;;;;;;;7.85;5.53;;;;;;;14.43;74.17;101344.59;6009014;23;20683;-77
2023/06/03 04:30:51;;;;;;;5.43;5.13;;;;;;;13.69;72.56;101195.75;6022648;23;20433;-77
2023/06/03 04:33:21;;;;;;;7.00;6.40;;;;;;;14.54;71.56;101298.13;6021880;23;20599;-77
2023/06/03 04:35:53;;;;;;;5.97;5.47;;;;;;;14.84;70.42;101305.19;6011695;23;20037;-76
2023/06/03 04:38:23;;;;;;;6.20;5.78;;;;;;;15.29;69.96;101268.09;6007104;23;20031;-77
2023/06/03 04:40:54;;;;;;;6.00;5.60;;;;;;;13.41;68.30;100986.44;6050344;23;20171;-77
2023/06/03 04:43:24;;;;;;;6.03;5.53;;;;;;;14.11;69.28;101178.38;6015390;23;20083;-77
2023/06/03 04:45:53;;;;;;;5.97;5.57;;;;;;;13.42;69.53;101072.47;6042175;23;20049;-77
2023/06/03 04:48:23;;;;;;;5.88;5.40;;;;;;;14.44;69.28;101190.50;6012202;23;20027;-77
2023/06/03 04:50:52;;;;;;;6.00;5.60;;;;;;;14.65;68.40;101209.50;6026188;23;20027;-78
2023/06/03 04:53:40;;;;;;;6.47;6.03;;;;;;;14.81;67.24;101165.31;6008882;23;20059;-77
2023/06/03 04:56:08;;;;;;;6.20;5.80;;;;;;;15.04;65.82;101108.38;6019637;23;20023;-76
2023/06/03 04:58:39;;;;;;;8.68;6.80;;;;;;;15.70;64.62;101124.38;6006457;23;20022;-77
2023/06/03 05:01:08;;;;;;;7.95;6.38;;;;;;;15.99;62.71;101066.81;6011259;23;20034;-76
2023/06/03 05:03:44;;;;;;;8.30;6.05;;;;;;;16.28;61.78;101053.38;6015125;23;20014;-75
2023/06/03 05:06:11;;;;;;;6.00;5.70;;;;;;;15.35;60.99;100849.88;6020204;23;20027;-75
2023/06/03 05:08:39;;;;;;;6.15;5.55;;;;;;;16.75;60.21;101012.84;6004460;23;20038;-77
2023/06/03 05:11:05;;;;;;;7.00;6.20;;;;;;;16.73;59.46;100913.22;6038869;23;20356;-76
2023/06/03 05:13:34;;;;;;;6.50;5.97;;;;;;;16.85;56.60;100768.34;6013155;23;20015;-76
2023/06/03 05:16:01;;;;;;;6.60;6.10;;;;;;;16.75;56.12;100742.50;6032806;23;20039;-76
2023/06/03 05:18:27;;;;;;;6.70;6.20;;;;;;;17.08;54.76;100694.97;6042703;23;20050;-77
2023/06/03 05:20:57;;;;;;;8.43;6.47;;;;;;;18.51;54.39;100863.91;6011665;23;20029;-76
2023/06/03 05:23:23;;;;;;;8.85;6.00;;;;;;;18.48;53.40;100777.31;6031728;23;20084;-78
2023/06/03 05:25:50;;;;;;;6.20;5.80;;;;;;;17.79;54.35;100745.81;6005362;23;20039;-75
2023/06/03 05:28:17;;;;;;;6.65;6.10;;;;;;;19.17;53.71;100900.09;6002986;23;20019;-76
2023/06/03 05:30:44;;;;;;;6.40;6.00;;;;;;;17.78;51.72;100521.16;6028381;23;20003;-76
2023/06/03 05:33:33;;;;;;;6.18;5.68;;;;;;;18.89;50.65;100658.63;6003936;23;20031;-75
2023/06/03 05:36:02;;;;;;;7.45;6.82;;;;;;;18.76;50.72;100615.41;6002454;23;20023;-74
2023/06/03 05:38:30;;;;;;;6.43;6.00;;;;;;;18.88;49.80;100579.81;6002220;23;20031;-76
2023/06/03 05:40:58;;;;;;;6.53;6.07;;;;;;;19.97;47.80;100661.44;6032217;23;20030;-76
2023/06/03 05:43:25;;;;;;;6.25;5.95;;;;;;;19.89;46.86;100523.66;6006954;23;20030;-77
2023/06/03 05:45:51;;;;;;;5.90;5.60;;;;;;;20.35;45.71;100483.75;6066669;23;20006;-76
2023/06/03 05:48:24;;;;;;;6.35;5.95;;;;;;;21.22;43.87;100573.06;6007668;23;20281;-77
2023/06/03 05:50:58;;;;;;;5.65;5.32;;;;;;;20.98;42.32;100440.25;6028396;23;20090;-76
2023/06/03 05:53:38;;;;;;;5.88;5.57;;;;;;;21.63;42.56;100602.81;6005014;23;20018;-76
2023/06/03 05:56:11;;;;;;;6.20;5.80;;;;;;;21.21;41.20;100536.66;6040325;23;20035;-77
2023/06/03 05:58:38;;;;;;;8.38;6.15;;;;;;;21.09;41.29;100541.44;6021392;23;20095;-77
2023/06/03 06:01:04;;;;;;;6.15;5.75;;;;;;;21.22;41.47;100599.75;6035294;23;20018;-76
2023/06/03 06:03:31;;;;;;;6.10;5.70;;;;;;;21.68;41.42;100692.16;6009582;23;20035;-76
2023/06/03 06:06:01;;;;;;;5.97;5.68;;;;;;;21.63;40.77;100642.88;6006946;23;20034;-76
2023/06/03 06:08:28;;;;;;;7.78;5.90;;;;;;;21.34;39.80;100595.84;6032497;23;20026;-76
2023/06/03 06:10:54;;;;;;;5.80;5.50;;;;;;;21.37;39.19;100541.31;6005571;23;20031;-76
2023/06/03 06:13:21;;;;;;;5.90;5.60;;;;;;;21.47;38.65;100575.00;6026682;23;20019;-76
2023/06/03 06:15:58;;;;;;;5.95;5.60;;;;;;;21.74;39.24;100692.56;6004640;23;20014;-76
2023/06/03 06:18:25;;;;;;;6.07;5.68;;;;;;;21.56;36.28;100586.56;6024923;23;20474;-76
2023/06/03 06:20:52;;;;;;;5.70;5.40;;;;;;;21.42;37.24;100654.66;6003668;23;20177;-77
2023/06/03 06:23:18;;;;;;;6.28;5.97;;;;;;;21.09;37.66;100624.97;6000490;23;20543;-76
2023/06/03 06:25:49;;;;;;;5.75;5.45;;;;;;;20.81;39.20;100722.03;6007668;23;20039;-75
2023/06/03 06:28:21;;;;;;;7.05;6.72;;;;;;;19.87;40.44;100742.19;5991375;23;20208;-76
2023/06/03 06:30:51;;;;;;;5.72;5.43;;;;;;;18.89;40.72;100679.88;6012144;23;20011;-76
2023/06/03 06:33:18;;;;;;;5.90;5.60;;;;;;;19.26;40.48;100747.63;6021624;23;20023;-76
2023/06/03 06:35:44;;;;;;;5.78;5.47;;;;;;;19.09;39.06;100712.72;6019937;23;20038;-76
2023/06/03 06:38:11;;;;;;;6.13;5.82;;;;;;;17.96;40.90;100637.41;6008171;23;20646;-76
2023/06/03 06:40:39;;;;;;;6.28;5.75;;;;;;;18.41;41.04;100727.47;6015560;23;20033;-75
2023/06/03 06:43:08;;;;;;;5.78;5.47;;;;;;;18.56;41.00;100789.94;6010071;23;20102;-75
2023/06/03 06:45:35;;;;;;;5.80;5.50;;;;;;;18.49;41.94;100815.34;6031706;23;20516;-75
2023/06/03 06:48:12;;;;;;;5.70;5.40;;;;;;;18.62;41.84;100863.88;6010600;23;20404;-75
2023/06/03 06:50:53;;;;;;;5.63;5.30;;;;;;;18.04;40.78;100726.09;6031230;23;20142;-75
2023/06/03 06:53:22;;;;;;;5.85;5.55;;;;;;;18.26;40.79;100778.28;6009187;23;20103;-75
2023/06/03 06:55:51;;;;;;;5.50;5.20;;;;;;;18.80;40.29;100834.06;6028245;23;20124;-76
2023/06/03 06:58:18;;;;;;;5.90;5.60;;;;;;;18.27;40.37;100768.47;6031265;23;20039;-76
2023/06/03 07:00:46;;;;;;;5.45;5.15;;;;;;;17.42;40.51;100639.16;6035214;23;20562;-75
2023/06/03 07:03:15;;;;;;;5.57;5.28;;;;;;;18.37;40.87;100840.28;6035445;23;20101;-76
2023/06/03 07:05:43;;;;;;;5.72;5.43;;;;;;;18.38;39.69;100796.78;6004989;23;20746;-75
2023/06/03 07:08:10;;;;;;;5.65;5.35;;;;;;;16.96;40.32;100627.84;6035640;23;20052;-75
2023/06/03 07:10:37;;;;;;;5.80;5.40;;;;;;;18.27;40.29;100843.69;6030563;23;20094;-72
2023/06/03 07:13:06;;;;;;;5.50;5.20;;;;;;;17.36;40.33;100712.16;5997235;23;20027;-74
2023/06/03 07:15:32;;;;;;;5.40;5.10;;;;;;;17.68;41.00;100778.56;6011181;23;20027;-74
2023/06/03 07:17:59;;;;;;;5.40;5.10;;;;;;;17.55;40.07;100704.38;6031677;23;20027;-74
2023/06/03 07:20:38;;;;;;;5.57;5.28;;;;;;;18.71;40.60;100904.78;6003187;23;20671;-74
2023/06/03 07:23:10;;;;;;;5.53;5.22;;;;;;;18.59;41.30;100941.19;6030266;23;20101;-74
2023/06/03 07:25:42;;;;;;;5.70;5.40;;;;;;;18.64;40.70;100928.38;6032058;23;20632;-75
2023/06/03 07:28:14;;;;;;;5.70;5.40;;;;;;;18.60;42.61;100980.13;6012318;23;20470;-75
2023/06/03 07:30:42;;;;;;;5.30;5.00;;;;;;;18.54;40.46;100883.09;6001436;23;20650;-74
2023/06/03 07:33:11;;;;;;;5.93;5.38;;;;;;;18.65;41.35;100937.19;6041776;23;20455;-74
2023/06/03 07:35:38;;;;;;;5.32;5.13;;;;;;;18.74;41.46;100960.34;6014649;23;20125;-74
2023/06/03 07:38:05;;;;;;;5.80;5.40;;;;;;;18.46;39.83;100845.69;6027664;23;20035;-74
2023/06/03 07:40:40;;;;;;;5.40;5.10;;;;;;;18.45;41.20;100917.56;6011515;23;20042;-73
2023/06/03 07:43:11;;;;;;;5.47;5.18;;;;;;;18.88;41.48;100980.50;6035346;23;20070;-75
2023/06/03 07:45:38;;;;;;;5.70;5.30;;;;;;;19.15;40.70;100960.56;6008355;23;20201;-74
2023/06/03 07:48:08;;;;;;;5.65;5.25;;;;;;;18.73;40.21;100863.78;6032714;23;20045;-75
2023/06/03 07:50:34;;;;;;;5.60;5.30;;;;;;;18.94;41.20;100956.06;6006169;23;20034;-75
2023/06/03 07:53:05;;;;;;;5.38;5.07;;;;;;;18.23;39.83;100788.31;6028221;23;20042;-75
2023/06/03 07:55:43;;;;;;;5.60;5.30;;;;;;;19.17;38.76;100884.97;6029189;23;20063;-75
2023/06/03 07:58:11;;;;;;;5.57;5.28;;;;;;;18.05;39.77;100743.69;6004043;23;20689;-75
2023/06/03 08:00:52;;;;;;;5.70;5.40;;;;;;;19.33;39.26;100922.59;6008829;23;20690;-76
2023/06/03 08:03:22;;;;;;;5.85;5.50;;;;;;;19.20;39.98;100926.44;6038708;23;20035;-77
2023/06/03 08:05:53;;;;;;;5.85;5.55;;;;;;;19.29;41.28;100992.19;6005862;23;20003;-75
2023/06/03 08:08:29;;;;;;;5.93;5.53;;;;;;;19.32;39.66;100923.59;6031420;23;20035;-77
2023/06/03 08:10:55;;;;;;;5.53;5.22;;;;;;;18.53;39.65;100777.75;6005578;23;20027;-75
2023/06/03 08:13:22;;;;;;;7.95;5.47;;;;;;;19.04;41.27;100929.53;6004941;23;20583;-75
2023/06/03 08:15:48;;;;;;;5.43;5.13;;;;;;;18.68;41.79;100927.16;6013472;23;20531;-75
2023/06/03 08:18:36;;;;;;;5.90;5.60;;;;;;;18.37;41.12;100825.19;6003212;23;20070;-75
2023/06/03 08:21:03;;;;;;;6.05;5.50;;;;;;;18.92;41.14;100903.03;6010663;23;20033;-75
2023/06/03 08:23:30;;;;;;;6.55;5.00;;;;;;;18.93;41.41;100920.66;6001739;23;20122;-75
2023/06/03 08:26:02;;;;;;;5.53;5.22;;;;;;;18.94;40.91;100900.22;6031151;23;20031;-75
2023/06/03 08:28:29;;;;;;;7.78;5.57;;;;;;;18.87;43.39;100992.13;6005478;23;20848;-75
2023/06/03 08:30:56;;;;;;;5.70;5.40;;;;;;;19.24;43.57;101072.38;6003164;23;20630;-75
2023/06/03 08:33:22;;;;;;;5.82;5.43;;;;;;;19.13;44.58;101028.03;6039512;23;20032;-75
2023/06/03 08:35:48;;;;;;;5.60;5.30;;;;;;;19.19;43.61;101020.53;6013060;23;20011;-75
2023/06/03 08:38:16;;;;;;;5.82;5.43;;;;;;;19.09;43.33;100977.91;6026408;23;20031;-75
2023/06/03 08:40:47;;;;;;;5.40;5.10;;;;;;;19.10;43.76;100999.06;6035443;23;20034;-75
2023/06/03 08:43:15;;;;;;;5.55;5.25;;;;;;;19.77;43.56;101090.19;5998492;23;20091;-76
2023/06/03 08:46:19;;;;;;;8.43;5.15;;;;;;;19.10;41.58;100886.44;6039973;23;20018;-76
2023/06/03 08:49:07;;;;;;;5.60;5.30;;;;;;;19.25;42.71;100972.97;6005852;23;20046;-76
2023/06/03 08:51:42;;;;;;;5.70;5.15;;;;;;;19.46;43.50;101018.19;6034758;23;20049;-75
2023/06/03 08:54:13;;;;;;;5.65;5.35;;;;;;;19.77;43.24;101054.75;6002413;23;20102;-75
2023/06/03 08:56:44;;;;;;;5.30;5.00;;;;;;;19.76;43.11;101043.22;6025741;23;20031;-75
2023/06/03 08:59:15;;;;;;;5.60;5.20;;;;;;;19.33;41.09;100880.00;6007307;23;22181;-76
2023/06/03 09:01:45;;;;;;;5.57;5.28;;;;;;;19.55;41.48;100920.75;6042515;23;20025;-75
2023/06/03 09:04:13;;;;;;;5.75;5.45;;;;;;;19.52;41.69;100937.84;6015707;23;20027;-76
2023/06/03 09:06:46;;;;;;;5.85;5.45;;;;;;;19.69;41.80;100951.50;6036132;23;20038;-76
2023/06/03 09:09:14;;;;;;;5.68;5.38;;;;;;;19.63;40.98;100909.44;6003503;23;20050;-76
2023/06/03 09:11:42;;;;;;;6.10;5.70;;;;;;;19.80;42.51;101014.50;6031052;23;20372;-76
2023/06/03 09:14:10;;;;;;;5.55;5.15;;;;;;;20.07;41.29;100980.16;6001672;23;20560;-75
2023/06/03 09:16:37;;;;;;;5.63;5.32;;;;;;;19.73;40.92;100923.66;6027070;23;20116;-75
2023/06/03 09:19:04;;;;;;;5.53;5.22;;;;;;;19.32;41.77;100899.63;6007890;23;20546;-75
2023/06/03 09:21:31;;;;;;;5.85;5.50;;;;;;;19.98;39.05;100890.38;6032223;23;20025;-75
2023/06/03 09:23:58;;;;;;;5.80;5.40;;;;;;;19.38;40.32;100829.03;6010764;23;20086;-76
2023/06/03 09:26:25;;;;;;;5.80;5.40;;;;;;;19.79;40.53;100946.25;6034531;23;20060;-75
2023/06/03 09:28:51;;;;;;;5.55;5.25;;;;;;;19.95;40.20;100937.78;6006242;23;20049;-76
2023/06/03 09:31:18;;;;;;;6.93;6.53;;;;;;;19.68;41.41;100944.47;6028313;23;20035;-76
2023/06/03 09:33:45;;;;;;;5.30;5.00;;;;;;;19.10;39.74;100809.31;6006202;23;20096;-76
2023/06/03 09:36:13;;;;;;;5.72;5.43;;;;;;;18.88;40.27;100799.69;6013370;23;20015;-76
2023/06/03 09:38:50;;;;;;;5.50;5.20;;;;;;;20.02;40.53;100965.53;6005033;23;20011;-75
2023/06/03 09:41:22;;;;;;;5.53;5.22;;;;;;;19.93;40.13;100921.91;6006030;23;20035;-75
2023/06/03 09:44:03;;;;;;;5.30;5.10;;;;;;;20.08;41.03;101021.78;6058271;23;20042;-75
2023/06/03 09:46:31;;;;;;;5.35;5.05;;;;;;;20.29;41.59;101013.75;6008663;23;20038;-76
2023/06/03 09:49:09;;;;;;;5.65;5.15;;;;;;;20.19;41.35;101017.38;6011753;23;20697;-76
2023/06/03 09:51:44;;;;;;;5.90;5.53;;;;;;;19.61;40.47;100871.47;6035047;23;20029;-76
2023/06/03 09:54:20;;;;;;;6.90;5.40;;;;;;;20.25;40.85;100950.19;6009115;23;20109;-76
2023/06/03 09:56:47;;;;;;;5.65;5.32;;;;;;;20.12;40.28;100913.94;6004728;23;20062;-75
2023/06/03 09:59:25;;;;;;;5.93;5.53;;;;;;;20.39;40.99;100995.13;6001391;23;20614;-74
2023/06/03 10:01:53;;;;;;;6.18;5.40;;;;;;;19.40;40.17;100768.53;6027614;23;20042;-74
2023/06/03 10:04:37;;;;;;;6.15;5.60;;;;;;;20.74;40.20;100998.28;6032565;23;20027;-75
2023/06/03 10:07:10;;;;;;;6.85;6.35;;;;;;;21.03;39.54;101009.81;6007712;23;20047;-74
2023/06/03 10:09:38;;;;;;;5.70;5.40;;;;;;;19.69;39.98;100805.06;6029230;23;20037;-75
2023/06/03 10:12:07;;;;;;;5.95;5.50;;;;;;;20.91;40.23;101014.44;6002269;23;20034;-75
2023/06/03 10:14:44;;;;;;;5.95;5.55;;;;;;;19.65;39.31;100753.06;6038289;23;20024;-75
2023/06/03 10:17:12;;;;;;;5.70;5.40;;;;;;;20.20;38.28;100801.34;5999609;23;20113;-74
2023/06/03 10:19:40;;;;;;;5.60;5.30;;;;;;;20.98;38.64;100947.19;6024722;23;20058;-75
2023/06/03 10:22:09;;;;;;;5.57;5.28;;;;;;;21.22;39.19;100974.25;6006055;23;20037;-74
2023/06/03 10:24:39;;;;;;;5.80;5.40;;;;;;;21.07;38.47;100955.19;6035666;23;20093;-75
2023/06/03 10:27:06;;;;;;;5.75;5.43;;;;;;;20.52;39.05;100890.88;5999277;23;20411;-74
2023/06/03 10:29:33;;;;;;;5.45;5.15;;;;;;;20.45;38.75;100853.25;6034630;23;20045;-75
2023/06/03 10:32:02;;;;;;;6.03;5.53;;;;;;;21.11;39.41;100971.75;6007824;23;20031;-75
2023/06/03 10:34:30;;;;;;;6.00;5.60;;;;;;;19.81;40.17;100797.81;6031566;23;20639;-75
2023/06/03 10:37:01;;;;;;;5.72;5.22;;;;;;;21.48;38.05;100995.88;6002357;23;20050;-74
2023/06/03 10:39:31;;;;;;;9.65;5.75;;;;;;;20.38;38.84;100827.31;6040023;23;20565;-75
2023/06/03 10:42:05;;;;;;;6.30;5.85;;;;;;;20.98;39.45;100942.69;6009545;23;20079;-74
2023/06/03 10:44:33;;;;;;;5.55;5.25;;;;;;;21.43;39.39;101007.97;5999353;23;20094;-75
2023/06/03 10:47:05;;;;;;;5.60;5.30;;;;;;;21.45;37.66;100934.78;6015043;23;20025;-74
2023/06/03 10:49:39;;;;;;;5.75;5.45;;;;;;;21.76;38.91;101020.00;6005534;23;20083;-75
2023/06/03 10:52:16;;;;;;;5.50;5.20;;;;;;;21.45;38.82;100965.97;6026040;23;20585;-75
2023/06/03 10:55:09;;;;;;;5.60;5.30;;;;;;;21.49;38.59;100975.38;5996035;23;20028;-75
2023/06/03 10:57:44;;;;;;;5.60;5.30;;;;;;;21.54;39.54;101007.00;6035814;23;20554;-74
2023/06/03 11:00:12;;;;;;;6.18;5.78;;;;;;;21.25;38.09;100901.09;6002005;23;20067;-74
2023/06/03 11:03:05;;;;;;;6.82;5.55;;;;;;;21.67;39.02;101007.53;6031820;23;20553;-74
2023/06/03 11:05:31;;;;;;;;;;;;;;;21.51;39.02;100952.88;6000943;23;20465;-75
2023/06/03 11:07:58;;;;;;;5.80;5.35;;;;;;;21.40;39.25;100957.50;5994313;23;19978;-75
2023/06/03 11:10:34;;;;;;;6.03;5.72;;;;;;;21.28;38.27;100930.13;6024204;23;20041;-75
2023/06/03 11:13:00;;;;;;;5.90;5.50;;;;;;;21.27;38.68;100931.13;6000852;23;20026;-75
2023/06/03 11:16:02;;;;;;;5.90;5.60;;;;;;;21.26;37.89;100887.56;6026204;23;20033;-75
2023/06/03 11:18:30;;;;;;;5.75;5.45;;;;;;;21.02;39.45;100944.09;6024889;23;22287;-74
2023/06/03 11:20:57;;;;;;;5.60;5.30;;;;;;;21.59;38.83;101040.28;6013058;23;20027;-74
2023/06/03 11:23:39;;;;;;;5.80;5.50;;;;;;;21.74;39.84;101053.19;6038651;23;20516;-75
2023/06/03 11:26:31;;;;;;;5.75;5.30;;;;;;;21.56;38.62;100943.59;6008747;23;20638;-75
2023/06/03 11:28:59;;;;;;;5.95;5.63;;;;;;;21.30;37.99;100904.13;6009055;23;20031;-75
2023/06/03 11:31:27;;;;;;;5.95;5.63;;;;;;;21.72;36.49;100887.72;6040224;23;20026;-76
2023/06/03 11:34:22;;;;;;;6.20;5.80;;;;;;;22.08;36.79;100946.59;6033377;23;20191;-76
2023/06/03 11:36:54;;;;;;;7.90;5.65;;;;;;;21.00;38.44;100863.34;6059461;23;20013;-76
2023/06/03 11:39:22;;;;;;;5.70;5.40;;;;;;;20.94;37.13;100791.88;6010040;23;20090;-74
2023/06/03 11:42:02;;;;;;;5.57;5.28;;;;;;;21.65;38.23;100937.34;6029768;23;20089;-76
2023/06/03 11:44:29;;;;;;;5.68;5.38;;;;;;;21.51;39.22;100950.22;6005265;23;20109;-74